Aérodrome :
LOGIN :

S'inscrire | Disclaimer

   EN    FR    IT 

 










Légende :    VFR   VFR Marginal   IFR   IFR Intensif   IFR Très Intensif
Visi : 
Plafond : 
>= 8 km
>= 3000ft
5 à 8 km
1000 à 3000 ft
1500m à 5 km
500 à 1000 ft
800 à 1500m
200 à 500 ft
< 800m
< 200 ft
Symboles :   Orages  Brouillard  Fortes neiges  Fortes précipitations  Vent > 20 kt
SIGMETs :   Divers  Orages  Givrage  Turbulence  Onde Orograph.  Cendres Volcan.






- Altitude de l'aérodrome : 1504 ft
- Code IATA : PNA


LEPP - Noain Pamplona

DERNIER METAR :
  • 231400Z 19007KT 160V230 9999 FEW020 SCT046 08/04 Q1005

METARs EXPIRÉS :
  • 231330Z 20011KT 160V240 9999 -RA FEW030 SCT037 08/04 Q1006
  • 231300Z 21012KT 170V250 9999 -RA FEW025 08/03 Q1007
  • 231230Z 22018KT 180V260 9999 SCT040 08/03 Q1007
  • 231200Z 23009G19KT 190V280 9999 FEW045 SCT050 09/03 Q1008
  • 231130Z 23014KT 170V260 9999 FEW040 BKN048 09/02 Q1008

TAF TAF LEPP
Valide du 23 à 09h jusqu'au 24 à 09h UTC


230800Z 2309/2409 18005KT 9999 SCT030 TX07/2312Z TN04/2407Z
TEMPO 2312/2409 3000 RA
PROB40
TEMPO 2315/2321 18015G25KT
TEMPO 2318/2409 BKN010
TEMPO 2318/2409 36015G30KT



MET'MAP, la Météo Aéronautique d'un coup d'oeil ! - Copyright ORBIFLY Décembre 2007 - Disclaimer

ORBIFLY MET'MAP TEAM :

Programmation & Développement : Alexandra Zaïnal
Sur une idée originale de : Baudouin d'Aumeries
Assistance à la programmation : Marc-Olivier Méhu
Soutien technique & logistique : Manuel Goepfert

Contact : metmap@orbifly.com




SOURCES & CREDITS :

   NOAA